createdAt,value
2023-02-11T00:01:31.341Z,11.77
2023-02-11T00:04:01.008Z,12.83
2023-02-11T00:06:32.082Z,11.83
2023-02-11T00:09:01.159Z,10.73
2023-02-11T00:11:31.889Z,10.53
2023-02-11T00:14:05.314Z,12.30
2023-02-11T00:16:33.745Z,12.60
2023-02-11T00:19:03.372Z,12.10
2023-02-11T00:21:31.753Z,12.90
2023-02-11T00:24:02.198Z,11.67
2023-02-11T00:26:33.902Z,10.50
2023-02-11T00:29:05.103Z,12.37
2023-02-11T00:31:34.358Z,11.73
2023-02-11T00:34:02.966Z,10.63
2023-02-11T00:36:32.035Z,12.07
2023-02-11T00:39:01.565Z,10.10
2023-02-11T00:41:30.114Z,10.73
2023-02-11T00:44:00.752Z,12.63
2023-02-11T00:46:30.884Z,12.20
2023-02-11T00:48:59.227Z,12.40
2023-02-11T00:51:28.563Z,11.20
2023-02-11T00:53:57.470Z,10.93
2023-02-11T00:56:25.717Z,11.27
2023-02-11T00:58:54.030Z,11.20
2023-02-11T01:01:22.279Z,10.80
2023-02-11T01:03:52.225Z,10.73
2023-02-11T01:06:21.076Z,11.97
2023-02-11T01:08:49.176Z,10.67
2023-02-11T01:11:21.308Z,9.97
2023-02-11T01:13:50.819Z,10.47
2023-02-11T01:16:20.832Z,11.00
2023-02-11T01:18:49.068Z,11.37
2023-02-11T01:21:20.500Z,10.53
2023-02-11T01:23:48.869Z,10.30
2023-02-11T01:26:17.134Z,10.63
2023-02-11T01:28:45.562Z,11.10
2023-02-11T01:31:13.836Z,10.53
2023-02-11T01:33:42.135Z,10.67
2023-02-11T01:36:13.092Z,9.60
2023-02-11T01:38:44.327Z,10.27
2023-02-11T01:41:15.515Z,10.13
2023-02-11T01:43:47.219Z,9.77
2023-02-11T01:46:35.214Z,9.57
2023-02-11T01:49:10.551Z,9.53
2023-02-11T01:51:44.683Z,8.27
2023-02-11T01:54:37.096Z,9.47
2023-02-11T01:57:24.661Z,9.43
2023-02-11T02:00:14.946Z,9.60
2023-02-11T02:02:53.692Z,8.20
2023-02-11T02:05:32.197Z,9.37
2023-02-11T02:08:11.796Z,9.43
2023-02-11T02:10:46.926Z,10.30
2023-02-11T02:13:18.188Z,9.07
2023-02-11T02:15:52.861Z,9.17
2023-02-11T02:18:40.769Z,8.97
2023-02-11T02:21:53.559Z,8.77
2023-02-11T02:24:50.030Z,8.60
2023-02-11T02:27:38.505Z,8.33
2023-02-11T02:30:51.733Z,8.93
2023-02-11T02:33:39.376Z,7.33
2023-02-11T02:36:16.813Z,8.70
2023-02-11T02:38:54.920Z,9.53
2023-02-11T02:41:29.394Z,8.60
2023-02-11T02:43:58.124Z,8.67
2023-02-11T02:46:29.426Z,9.23
2023-02-11T02:49:00.043Z,8.23
2023-02-11T02:52:01.565Z,9.27
2023-02-11T02:55:17.565Z,8.60
2023-02-11T02:58:11.052Z,8.70
2023-02-11T03:00:49.880Z,8.43
2023-02-11T03:03:32.479Z,8.70
2023-02-11T03:06:08.890Z,8.67
2023-02-11T03:08:44.750Z,8.70
2023-02-11T03:11:18.121Z,8.77
2023-02-11T03:13:49.469Z,8.10
2023-02-11T03:16:23.785Z,8.53
2023-02-11T03:18:59.904Z,9.17
2023-02-11T03:21:33.964Z,8.70
2023-02-11T03:24:08.324Z,8.33
2023-02-11T03:26:41.342Z,7.83
2023-02-11T03:29:19.172Z,8.53
2023-02-11T03:32:00.480Z,8.63
2023-02-11T03:34:37.296Z,8.97
2023-02-11T03:37:14.036Z,8.73
2023-02-11T03:39:51.231Z,8.43
2023-02-11T03:42:20.792Z,8.27
2023-02-11T03:44:55.803Z,9.70
2023-02-11T03:47:29.662Z,9.00
2023-02-11T03:50:02.040Z,8.20
2023-02-11T03:52:33.480Z,9.20
2023-02-11T03:55:06.991Z,8.67
2023-02-11T03:57:35.223Z,8.97
2023-02-11T04:00:03.533Z,8.43
2023-02-11T04:02:41.664Z,7.70
2023-02-11T04:05:13.373Z,8.90
2023-02-11T04:07:42.801Z,8.83
2023-02-11T04:10:13.369Z,8.20
2023-02-11T04:12:41.543Z,9.07
2023-02-11T04:15:10.424Z,8.87
2023-02-11T04:17:39.284Z,8.63
2023-02-11T04:20:08.613Z,8.50
2023-02-11T04:22:36.980Z,9.30
2023-02-11T04:25:07.928Z,8.27
2023-02-11T04:27:36.503Z,8.67
2023-02-11T04:30:05.675Z,9.20
2023-02-11T04:32:33.759Z,9.17
2023-02-11T04:35:02.822Z,9.27
2023-02-11T04:37:31.179Z,7.97
2023-02-11T04:39:59.221Z,9.90
2023-02-11T04:42:28.966Z,8.30
2023-02-11T04:44:57.147Z,8.63
2023-02-11T04:47:25.370Z,9.13
2023-02-11T04:49:53.420Z,8.27
2023-02-11T04:52:21.445Z,9.57
2023-02-11T07:06:33.020Z,10.70
2023-02-11T07:09:01.221Z,9.33
2023-02-11T07:11:31.733Z,10.13
2023-02-11T07:14:04.563Z,9.60
2023-02-11T07:16:34.290Z,9.37
2023-02-11T07:19:02.638Z,10.03
2023-02-11T07:21:30.977Z,10.47
2023-02-11T07:24:00.482Z,9.37
2023-02-11T07:26:28.932Z,10.73
2023-02-11T07:28:57.090Z,10.73
2023-02-11T07:31:27.915Z,11.43
2023-02-11T07:33:59.827Z,10.67
2023-02-11T07:36:31.679Z,9.93
2023-02-11T07:39:01.602Z,10.50
2023-02-11T07:41:29.744Z,10.27
2023-02-11T07:43:57.783Z,9.93
2023-02-11T07:46:28.846Z,9.27
2023-02-11T07:48:57.245Z,9.73
2023-02-11T07:51:28.239Z,10.57
2023-02-11T07:53:59.037Z,11.13
2023-02-11T07:56:29.697Z,9.83
2023-02-11T07:59:01.766Z,10.87
2023-02-11T08:01:31.270Z,10.70
2023-02-11T08:04:01.802Z,11.03
2023-02-11T08:06:32.891Z,11.10
2023-02-11T08:09:06.052Z,11.10
2023-02-11T08:11:36.094Z,11.40
2023-02-11T08:14:04.241Z,12.07
2023-02-11T08:16:35.463Z,11.47
2023-02-11T08:19:06.789Z,10.57
2023-02-11T08:21:43.075Z,11.10
2023-02-11T08:24:11.782Z,11.03
2023-02-11T08:26:41.576Z,10.10
2023-02-11T08:29:13.442Z,9.70
2023-02-11T08:31:44.898Z,11.90
2023-02-11T08:34:20.113Z,11.73
2023-02-11T08:36:49.881Z,11.93
2023-02-11T08:39:20.978Z,11.03
2023-02-11T08:41:53.700Z,12.17
2023-02-11T08:44:24.310Z,11.03
2023-02-11T08:46:52.948Z,11.27
2023-02-11T08:49:22.120Z,11.70
2023-02-11T08:51:52.037Z,10.83
2023-02-11T08:54:20.417Z,10.90
2023-02-11T08:56:53.870Z,11.53
2023-02-11T08:59:22.229Z,11.37
2023-02-11T09:01:50.978Z,11.60
2023-02-11T09:04:19.444Z,12.70
2023-02-11T09:06:47.665Z,11.40
2023-02-11T09:09:17.283Z,11.87
2023-02-11T09:11:46.801Z,12.70
2023-02-11T09:14:23.183Z,13.80
2023-02-11T09:16:53.101Z,12.07
2023-02-11T09:19:22.938Z,12.23
2023-02-11T09:21:51.316Z,12.77
2023-02-11T09:24:19.573Z,11.63
2023-02-11T09:26:47.740Z,12.90
2023-02-11T09:29:15.788Z,12.80
2023-02-11T09:31:45.378Z,11.97
2023-02-11T09:34:15.349Z,13.03
2023-02-11T09:36:43.822Z,12.80
2023-02-11T09:39:18.133Z,12.73
2023-02-11T09:42:11.551Z,12.00
2023-02-11T09:44:40.738Z,12.27
2023-02-11T09:47:29.282Z,12.97
2023-02-11T09:50:04.209Z,11.47
2023-02-11T09:52:42.729Z,13.83
2023-02-11T09:55:21.899Z,12.13
2023-02-11T09:57:50.501Z,12.77
2023-02-11T10:00:25.261Z,12.90
2023-02-11T10:03:46.465Z,11.87
2023-02-11T10:06:40.918Z,12.90
2023-02-11T10:09:52.756Z,12.03
2023-02-11T10:12:43.088Z,11.77
2023-02-11T10:15:27.299Z,12.07
2023-02-11T10:18:17.937Z,13.10
2023-02-11T10:21:06.769Z,12.83
2023-02-11T10:23:43.104Z,12.47
2023-02-11T10:26:15.964Z,12.00
2023-02-11T10:28:48.387Z,12.77
2023-02-11T10:31:22.340Z,12.43
2023-02-11T10:34:00.136Z,12.93
2023-02-11T10:36:33.907Z,12.43
2023-02-11T10:39:13.973Z,12.63
2023-02-11T10:41:48.038Z,12.87
2023-02-11T10:44:26.637Z,12.30
2023-02-11T10:46:57.288Z,12.17
2023-02-11T10:49:39.161Z,14.43
2023-02-11T10:52:23.962Z,11.93
2023-02-11T10:55:07.025Z,13.20
2023-02-11T10:57:39.758Z,13.10
2023-02-11T11:00:27.786Z,13.53
2023-02-11T11:02:59.899Z,12.63
2023-02-11T11:05:33.670Z,13.70
2023-02-11T11:08:06.559Z,12.37
2023-02-11T11:10:44.079Z,12.47
2023-02-11T11:13:28.505Z,12.80
2023-02-11T11:16:26.195Z,12.80
2023-02-11T11:19:17.156Z,13.23
2023-02-11T11:21:49.264Z,12.57
2023-02-11T11:24:22.047Z,14.03
2023-02-11T11:26:53.348Z,13.07
2023-02-11T11:29:31.585Z,12.83
2023-02-11T11:32:04.607Z,12.33
2023-02-11T11:34:37.061Z,11.30
2023-02-11T11:37:20.315Z,11.93
2023-02-11T11:39:58.160Z,12.37
2023-02-11T11:42:29.807Z,13.10
2023-02-11T11:45:01.053Z,12.20
2023-02-11T11:47:40.550Z,13.07
2023-02-11T11:50:30.145Z,13.40
2023-02-11T11:53:05.879Z,12.37
2023-02-11T11:55:42.207Z,11.23
2023-02-11T11:58:17.461Z,11.23
2023-02-11T12:00:59.966Z,11.20
2023-02-11T12:04:11.701Z,13.37
2023-02-11T12:06:51.009Z,12.47
2023-02-11T12:09:36.181Z,11.23
2023-02-11T12:12:36.493Z,10.50
2023-02-11T12:15:23.721Z,11.37
2023-02-11T12:18:24.477Z,10.37
2023-02-11T12:21:32.809Z,10.50
2023-02-11T12:24:29.415Z,10.37
2023-02-11T12:27:07.696Z,9.53
2023-02-11T12:29:56.498Z,10.07
2023-02-11T12:32:36.378Z,10.97
2023-02-11T12:35:26.209Z,12.87
2023-02-11T12:38:22.641Z,11.23
2023-02-11T12:41:10.654Z,12.03
2023-02-11T12:43:41.692Z,12.50
2023-02-11T12:46:39.160Z,11.33
2023-02-11T12:49:39.560Z,12.10
2023-02-11T12:52:30.720Z,13.23
2023-02-11T12:55:05.877Z,11.20
2023-02-11T12:57:39.019Z,11.80
2023-02-11T13:00:16.230Z,11.80
2023-02-11T13:02:55.985Z,12.07
2023-02-11T13:05:31.134Z,12.93
2023-02-11T13:08:08.925Z,11.10
2023-02-11T13:10:42.056Z,12.90
2023-02-11T13:13:21.531Z,12.47
2023-02-11T13:15:55.137Z,12.50
2023-02-11T13:18:44.027Z,13.30
2023-02-11T13:21:39.506Z,12.57
2023-02-11T13:24:23.569Z,12.27
2023-02-11T13:27:05.491Z,11.50
2023-02-11T13:30:14.438Z,13.40
2023-02-11T13:33:18.959Z,12.63
2023-02-11T13:36:11.168Z,10.60
2023-02-11T13:38:40.093Z,10.63
2023-02-11T13:41:20.947Z,10.80
2023-02-11T13:44:01.285Z,10.70
2023-02-11T13:46:54.260Z,12.00
2023-02-11T13:49:27.036Z,10.63
2023-02-11T13:51:56.976Z,10.67
2023-02-11T13:54:35.249Z,10.57
2023-02-11T13:57:41.071Z,10.43
2023-02-11T14:00:52.474Z,10.57
2023-02-11T14:03:55.515Z,10.30
2023-02-11T14:06:47.436Z,10.53
2023-02-11T14:09:38.565Z,10.70
2023-02-11T14:12:32.531Z,10.20
2023-02-11T14:15:28.452Z,11.00
2023-02-11T14:17:56.699Z,11.07
2023-02-11T14:20:41.918Z,10.87
2023-02-11T14:23:27.264Z,9.70
2023-02-11T14:26:11.633Z,9.03
2023-02-11T14:28:44.779Z,10.97
2023-02-11T14:31:19.653Z,11.53
2023-02-11T14:34:15.547Z,10.63
2023-02-11T14:37:11.610Z,10.83
2023-02-11T14:39:57.911Z,10.73
2023-02-11T14:42:30.882Z,11.40
2023-02-11T14:45:05.625Z,10.90
2023-02-11T14:47:44.153Z,11.40
2023-02-11T14:50:21.434Z,12.63
2023-02-11T14:52:51.595Z,11.57
2023-02-11T14:55:33.025Z,12.90
2023-02-11T14:58:17.173Z,11.77
2023-02-11T15:00:53.660Z,11.23
2023-02-11T15:03:31.890Z,12.00
2023-02-11T15:06:03.719Z,11.77
2023-02-11T15:08:36.196Z,12.40
2023-02-11T15:11:12.524Z,12.00
2023-02-11T15:13:47.240Z,11.43
2023-02-11T15:16:20.662Z,14.00
2023-02-11T15:18:55.319Z,12.40
2023-02-11T15:21:27.383Z,12.37
2023-02-11T15:24:06.990Z,12.97
2023-02-11T15:26:35.377Z,11.67
2023-02-11T15:29:04.833Z,11.77
2023-02-11T15:31:35.076Z,10.60
2023-02-11T15:34:09.470Z,10.83
2023-02-11T15:36:39.276Z,10.43
2023-02-11T15:39:34.241Z,11.70
2023-02-11T15:42:26.743Z,9.27
2023-02-11T15:45:25.854Z,9.90
2023-02-11T15:47:58.494Z,10.70
2023-02-11T15:50:30.087Z,10.33
2023-02-11T15:53:03.771Z,13.03
2023-02-11T15:55:33.989Z,10.87
2023-02-11T15:58:03.125Z,11.43
2023-02-11T16:00:38.236Z,11.37
2023-02-11T16:03:06.545Z,10.87
2023-02-11T16:05:37.479Z,11.43
2023-02-11T16:08:24.263Z,12.73
2023-02-11T16:10:59.250Z,11.98
2023-02-11T16:13:30.534Z,12.23
2023-02-11T16:16:04.450Z,12.60
2023-02-11T16:18:40.392Z,11.93
2023-02-11T16:21:17.594Z,12.57
2023-02-11T16:23:54.519Z,13.47
2023-02-11T16:26:31.011Z,13.50
2023-02-11T16:29:10.992Z,13.73
2023-02-11T16:31:43.161Z,13.33
2023-02-11T16:34:21.150Z,13.93
2023-02-11T16:36:51.512Z,13.03
2023-02-11T16:39:22.427Z,12.50
2023-02-11T16:41:52.659Z,12.23
2023-02-11T16:44:20.924Z,13.33
2023-02-11T16:46:49.286Z,12.10
2023-02-11T16:49:23.516Z,12.90
2023-02-11T16:51:57.232Z,13.00
2023-02-11T16:54:25.558Z,11.57
2023-02-11T16:56:55.346Z,12.40
2023-02-11T16:59:23.666Z,12.13
2023-02-11T17:01:54.605Z,12.00
2023-02-11T17:04:28.270Z,12.27
2023-02-11T17:06:58.349Z,10.83
2023-02-11T17:09:31.130Z,12.23
2023-02-11T17:12:00.787Z,11.40
2023-02-11T17:14:29.180Z,12.27
2023-02-11T17:16:58.456Z,12.37
2023-02-11T17:19:26.585Z,12.93
2023-02-11T17:21:54.999Z,11.93
2023-02-11T17:24:24.156Z,11.80
2023-02-11T17:26:52.570Z,13.60
2023-02-11T17:29:25.822Z,11.90
2023-02-11T17:31:54.790Z,12.80
2023-02-11T17:34:24.104Z,11.83
2023-02-11T17:36:52.721Z,11.43
2023-02-11T17:39:21.271Z,11.60
2023-02-11T17:41:49.686Z,11.47
2023-02-11T17:44:18.365Z,12.67
2023-02-11T17:46:47.809Z,14.90
2023-02-11T17:49:16.306Z,13.43
2023-02-11T17:51:44.856Z,13.10
2023-02-11T17:54:15.889Z,12.23
2023-02-11T17:56:44.372Z,12.30
2023-02-11T17:59:14.630Z,13.77
2023-02-11T18:01:44.023Z,13.90
2023-02-11T18:04:16.787Z,18.77
2023-02-11T18:06:45.597Z,16.17
2023-02-11T18:09:14.129Z,14.03
2023-02-11T18:11:42.567Z,13.07
2023-02-11T18:14:12.756Z,12.33
2023-02-11T18:16:43.504Z,14.63
2023-02-11T18:19:13.918Z,12.17
2023-02-11T18:21:42.439Z,12.57
2023-02-11T18:24:10.800Z,11.53
2023-02-11T18:26:38.978Z,12.23
2023-02-11T18:29:07.347Z,10.60
2023-02-11T18:31:36.764Z,11.83
2023-02-11T18:34:07.389Z,12.40
2023-02-11T18:36:38.034Z,13.57
2023-02-11T18:39:06.963Z,13.13
2023-02-11T18:41:35.635Z,11.97
2023-02-11T18:44:04.891Z,12.50
2023-02-11T18:46:33.631Z,12.13
2023-02-11T18:49:02.497Z,14.13
2023-02-11T18:51:32.813Z,13.20
2023-02-11T18:54:02.592Z,12.57
2023-02-11T18:56:31.122Z,12.33
2023-02-11T18:59:01.440Z,14.20
2023-02-11T19:01:31.623Z,13.30
2023-02-11T19:04:02.880Z,12.40
2023-02-11T19:06:35.308Z,11.87
2023-02-11T19:09:09.771Z,12.43
2023-02-11T19:11:50.465Z,11.87
2023-02-11T19:14:23.100Z,11.53
2023-02-11T19:16:54.469Z,11.33
2023-02-11T19:19:24.496Z,12.73
2023-02-11T19:21:53.441Z,11.37
2023-02-11T19:24:24.799Z,12.57
2023-02-11T19:26:57.727Z,11.97
2023-02-11T19:29:26.688Z,12.60
2023-02-11T19:31:56.080Z,11.97
2023-02-11T19:34:24.583Z,12.17
2023-02-11T19:36:54.175Z,13.30
2023-02-11T19:39:24.870Z,12.73
2023-02-11T19:41:53.522Z,13.87
2023-02-11T19:44:22.009Z,13.43
2023-02-11T19:46:52.785Z,12.87
2023-02-11T19:49:25.787Z,13.00
2023-02-11T19:51:58.112Z,13.60
2023-02-11T19:54:29.195Z,14.13
2023-02-11T19:56:59.115Z,12.67
2023-02-11T19:59:27.570Z,14.30
2023-02-11T20:01:56.057Z,15.27
2023-02-11T20:04:25.224Z,15.23
2023-02-11T20:06:53.651Z,13.43
2023-02-11T20:09:22.708Z,13.77
2023-02-11T20:11:52.488Z,13.83
2023-02-11T20:14:21.100Z,13.77
2023-02-11T20:16:50.318Z,13.60
2023-02-11T20:19:21.601Z,14.30
2023-02-11T20:21:55.780Z,13.37
2023-02-11T20:24:26.002Z,13.67
2023-02-11T20:26:56.498Z,14.27
2023-02-11T20:29:26.470Z,14.13
2023-02-11T20:31:55.698Z,13.13
2023-02-11T20:34:25.050Z,13.23
2023-02-11T20:36:54.113Z,13.97
2023-02-11T20:39:25.068Z,13.90
2023-02-11T20:41:56.503Z,13.03
2023-02-11T20:44:25.484Z,12.47
2023-02-11T20:46:54.827Z,14.07
2023-02-11T20:49:25.397Z,13.37
2023-02-11T20:51:54.480Z,12.53
2023-02-11T20:54:24.220Z,14.07
2023-02-11T20:56:53.868Z,13.27
2023-02-11T20:59:24.536Z,13.43
2023-02-11T21:01:56.422Z,13.17
2023-02-11T21:04:27.867Z,13.77
2023-02-11T21:06:59.751Z,13.73
2023-02-11T21:09:33.483Z,13.43
2023-02-11T21:12:03.421Z,14.03
2023-02-11T21:14:33.951Z,13.30
2023-02-11T21:17:02.317Z,14.13
2023-02-11T21:19:30.415Z,13.93
2023-02-11T21:22:00.548Z,13.37
2023-02-11T21:24:30.722Z,12.37
2023-02-11T21:26:58.855Z,12.03
2023-02-11T21:29:27.020Z,12.00
2023-02-11T21:31:56.694Z,13.10
2023-02-11T21:34:24.782Z,12.97
2023-02-11T21:36:52.916Z,12.87
2023-02-11T21:39:21.245Z,13.87
2023-02-11T21:41:49.663Z,12.03
2023-02-11T21:44:17.816Z,11.10
2023-02-11T21:46:46.102Z,13.27
2023-02-11T21:49:15.590Z,12.03
2023-02-11T21:51:43.793Z,13.30
2023-02-11T21:54:12.869Z,12.30
2023-02-11T21:56:41.015Z,12.93
2023-02-11T21:59:12.314Z,12.10
2023-02-11T22:01:40.936Z,12.43
2023-02-11T22:04:10.309Z,13.30
2023-02-11T22:06:40.003Z,12.67
2023-02-11T22:09:10.763Z,13.10
2023-02-11T22:11:39.010Z,12.30
2023-02-11T22:14:07.243Z,12.53
2023-02-11T22:16:35.653Z,13.60
2023-02-11T22:19:03.756Z,12.73
2023-02-11T22:21:31.921Z,13.73
2023-02-11T22:24:01.385Z,12.37
2023-02-11T22:26:30.084Z,12.13
2023-02-11T22:28:58.507Z,12.67
2023-02-11T22:31:29.829Z,13.37
2023-02-11T22:33:59.201Z,13.77
2023-02-11T22:36:30.380Z,12.27
2023-02-11T22:39:03.251Z,12.87
2023-02-11T22:41:31.889Z,11.77
2023-02-11T22:44:00.061Z,11.93
2023-02-11T22:46:28.347Z,12.47
2023-02-11T22:48:56.679Z,12.83
2023-02-11T22:51:27.896Z,12.43
2023-02-11T22:53:58.596Z,12.53
2023-02-11T22:56:29.678Z,12.30
2023-02-11T22:58:59.209Z,12.60
2023-02-11T23:01:27.948Z,12.17
2023-02-11T23:03:56.424Z,11.50
2023-02-11T23:06:24.505Z,12.90
2023-02-11T23:08:53.041Z,12.80
2023-02-11T23:11:24.101Z,12.77
2023-02-11T23:13:54.562Z,12.83
2023-02-11T23:16:26.415Z,12.67
2023-02-11T23:18:55.428Z,12.13
2023-02-11T23:21:26.537Z,12.43
2023-02-11T23:23:57.299Z,12.27
2023-02-11T23:26:26.440Z,11.70
2023-02-11T23:28:56.589Z,12.53
2023-02-11T23:31:28.973Z,12.07
2023-02-11T23:33:57.819Z,12.53
2023-02-11T23:36:26.061Z,13.10
2023-02-11T23:38:54.172Z,12.50
2023-02-11T23:41:23.050Z,11.83
2023-02-11T23:43:56.055Z,11.93
2023-02-11T23:46:26.228Z,12.03
2023-02-11T23:48:54.635Z,12.17
2023-02-11T23:51:24.006Z,11.63
2023-02-11T23:53:55.893Z,11.80
2023-02-11T23:56:28.721Z,13.50
2023-02-11T23:58:59.825Z,12.43
